sensor_id;sensor_type;location;lat;lon;timestamp;pressure;altitude;pressure_sealevel;temperature;humidity
32933;BME280;19444;50.518;10.870;2023-05-08T00:02:33;97003.25;;;11.15;100.00
32933;BME280;19444;50.518;10.870;2023-05-08T00:05:30;97005.47;;;10.99;100.00
32933;BME280;19444;50.518;10.870;2023-05-08T00:08:27;97019.75;;;10.95;100.00
32933;BME280;19444;50.518;10.870;2023-05-08T00:11:23;97013.69;;;11.03;100.00
32933;BME280;19444;50.518;10.870;2023-05-08T00:14:21;97013.09;;;11.06;100.00
32933;BME280;19444;50.518;10.870;2023-05-08T00:17:18;97009.94;;;11.04;100.00
32933;BME280;19444;50.518;10.870;2023-05-08T00:20:15;97012.22;;;11.10;100.00
32933;BME280;19444;50.518;10.870;2023-05-08T00:23:12;97009.75;;;11.00;100.00
32933;BME280;19444;50.518;10.870;2023-05-08T00:26:09;97008.63;;;10.74;100.00
32933;BME280;19444;50.518;10.870;2023-05-08T00:29:05;97016.91;;;10.45;100.00
32933;BME280;19444;50.518;10.870;2023-05-08T00:32:03;97012.09;;;10.74;100.00
32933;BME280;19444;50.518;10.870;2023-05-08T00:35:00;97012.06;;;10.61;100.00
32933;BME280;19444;50.518;10.870;2023-05-08T00:37:56;97014.69;;;10.79;100.00
32933;BME280;19444;50.518;10.870;2023-05-08T00:40:53;97020.41;;;10.27;100.00
32933;BME280;19444;50.518;10.870;2023-05-08T00:43:50;97014.38;;;10.35;100.00
32933;BME280;19444;50.518;10.870;2023-05-08T00:46:47;97022.63;;;10.19;100.00
32933;BME280;19444;50.518;10.870;2023-05-08T00:49:44;97022.28;;;10.26;100.00
32933;BME280;19444;50.518;10.870;2023-05-08T00:52:41;97029.72;;;10.10;100.00
32933;BME280;19444;50.518;10.870;2023-05-08T00:55:38;97029.53;;;10.25;100.00
32933;BME280;19444;50.518;10.870;2023-05-08T00:58:35;97034.16;;;10.01;100.00
32933;BME280;19444;50.518;10.870;2023-05-08T01:01:35;97036.69;;;9.92;100.00
32933;BME280;19444;50.518;10.870;2023-05-08T01:04:33;97042.47;;;10.00;100.00
32933;BME280;19444;50.518;10.870;2023-05-08T01:07:31;97041.38;;;10.19;100.00
32933;BME280;19444;50.518;10.870;2023-05-08T01:10:41;97038.34;;;10.07;100.00
32933;BME280;19444;50.518;10.870;2023-05-08T01:14:10;97038.41;;;9.83;100.00
32933;BME280;19444;50.518;10.870;2023-05-08T01:17:41;97042.25;;;10.34;100.00
32933;BME280;19444;50.518;10.870;2023-05-08T01:31:24;97059.81;;;9.40;100.00
32933;BME280;19444;50.518;10.870;2023-05-08T01:34:32;97053.22;;;9.57;100.00
32933;BME280;19444;50.518;10.870;2023-05-08T01:37:56;97061.19;;;9.62;100.00
32933;BME280;19444;50.518;10.870;2023-05-08T01:41:15;97070.28;;;9.42;100.00
32933;BME280;19444;50.518;10.870;2023-05-08T01:44:17;97068.25;;;9.29;100.00
32933;BME280;19444;50.518;10.870;2023-05-08T01:47:16;97062.88;;;9.34;100.00
32933;BME280;19444;50.518;10.870;2023-05-08T01:50:29;97062.06;;;9.09;100.00
32933;BME280;19444;50.518;10.870;2023-05-08T01:53:48;97057.06;;;9.27;100.00
32933;BME280;19444;50.518;10.870;2023-05-08T01:56:47;97052.13;;;9.58;100.00
32933;BME280;19444;50.518;10.870;2023-05-08T01:59:46;97055.03;;;9.61;100.00
32933;BME280;19444;50.518;10.870;2023-05-08T02:02:47;97058.59;;;9.09;100.00
32933;BME280;19444;50.518;10.870;2023-05-08T02:05:48;97057.44;;;8.91;100.00
32933;BME280;19444;50.518;10.870;2023-05-08T02:08:48;97051.06;;;8.87;100.00
32933;BME280;19444;50.518;10.870;2023-05-08T02:11:46;97046.97;;;8.66;100.00
32933;BME280;19444;50.518;10.870;2023-05-08T02:14:46;97054.28;;;8.84;100.00
32933;BME280;19444;50.518;10.870;2023-05-08T02:17:46;97051.88;;;8.88;100.00
32933;BME280;19444;50.518;10.870;2023-05-08T02:20:44;97050.97;;;8.68;100.00
32933;BME280;19444;50.518;10.870;2023-05-08T02:23:43;97053.19;;;8.90;100.00
32933;BME280;19444;50.518;10.870;2023-05-08T02:26:41;97064.16;;;8.89;100.00
32933;BME280;19444;50.518;10.870;2023-05-08T02:29:39;97057.19;;;9.17;100.00
32933;BME280;19444;50.518;10.870;2023-05-08T02:32:36;97057.84;;;9.27;100.00
32933;BME280;19444;50.518;10.870;2023-05-08T02:35:34;97052.34;;;9.43;100.00
32933;BME280;19444;50.518;10.870;2023-05-08T02:38:34;97055.59;;;9.16;100.00
32933;BME280;19444;50.518;10.870;2023-05-08T02:41:33;97064.28;;;8.73;100.00
32933;BME280;19444;50.518;10.870;2023-05-08T02:44:30;97063.50;;;9.26;100.00
32933;BME280;19444;50.518;10.870;2023-05-08T02:47:43;97065.59;;;8.76;100.00
32933;BME280;19444;50.518;10.870;2023-05-08T02:51:45;97075.13;;;8.87;100.00
32933;BME280;19444;50.518;10.870;2023-05-08T02:54:59;97066.41;;;9.05;100.00
32933;BME280;19444;50.518;10.870;2023-05-08T03:02:11;97076.22;;;9.10;100.00
32933;BME280;19444;50.518;10.870;2023-05-08T03:05:33;97070.31;;;9.13;100.00
32933;BME280;19444;50.518;10.870;2023-05-08T03:08:34;97071.22;;;9.27;100.00
32933;BME280;19444;50.518;10.870;2023-05-08T03:11:39;97061.69;;;8.92;100.00
32933;BME280;19444;50.518;10.870;2023-05-08T03:14:44;97069.69;;;8.97;100.00
32933;BME280;19444;50.518;10.870;2023-05-08T03:17:44;97064.22;;;9.07;100.00
32933;BME280;19444;50.518;10.870;2023-05-08T03:20:49;97066.94;;;9.02;100.00
32933;BME280;19444;50.518;10.870;2023-05-08T03:23:48;97061.88;;;9.01;100.00
32933;BME280;19444;50.518;10.870;2023-05-08T03:26:47;97058.97;;;9.21;100.00
32933;BME280;19444;50.518;10.870;2023-05-08T03:29:44;97056.25;;;9.02;100.00
32933;BME280;19444;50.518;10.870;2023-05-08T03:32:44;97057.91;;;8.98;100.00
32933;BME280;19444;50.518;10.870;2023-05-08T03:35:42;97062.97;;;9.00;100.00
32933;BME280;19444;50.518;10.870;2023-05-08T03:38:40;97065.25;;;8.88;100.00
32933;BME280;19444;50.518;10.870;2023-05-08T03:41:37;97062.75;;;8.96;100.00
32933;BME280;19444;50.518;10.870;2023-05-08T03:44:34;97061.84;;;9.06;100.00
32933;BME280;19444;50.518;10.870;2023-05-08T03:47:32;97061.66;;;8.97;100.00
32933;BME280;19444;50.518;10.870;2023-05-08T03:50:33;97062.63;;;9.30;100.00
32933;BME280;19444;50.518;10.870;2023-05-08T03:53:32;97062.25;;;9.18;100.00
32933;BME280;19444;50.518;10.870;2023-05-08T03:56:29;97058.66;;;9.28;100.00
32933;BME280;19444;50.518;10.870;2023-05-08T03:59:41;97059.38;;;9.09;100.00
32933;BME280;19444;50.518;10.870;2023-05-08T04:02:41;97061.84;;;8.77;100.00
32933;BME280;19444;50.518;10.870;2023-05-08T04:05:50;97059.13;;;8.82;100.00
32933;BME280;19444;50.518;10.870;2023-05-08T04:08:59;97072.41;;;8.92;100.00
32933;BME280;19444;50.518;10.870;2023-05-08T04:12:20;97062.97;;;9.00;100.00
32933;BME280;19444;50.518;10.870;2023-05-08T04:15:21;97061.69;;;8.92;100.00
32933;BME280;19444;50.518;10.870;2023-05-08T04:18:28;97065.53;;;9.10;100.00
32933;BME280;19444;50.518;10.870;2023-05-08T04:21:27;97072.06;;;8.99;100.00
32933;BME280;19444;50.518;10.870;2023-05-08T04:24:27;97071.66;;;9.10;100.00
32933;BME280;19444;50.518;10.870;2023-05-08T04:27:24;97076.97;;;9.16;100.00
32933;BME280;19444;50.518;10.870;2023-05-08T04:30:21;97077.97;;;8.96;100.00
32933;BME280;19444;50.518;10.870;2023-05-08T04:33:18;97073.25;;;9.11;100.00
32933;BME280;19444;50.518;10.870;2023-05-08T04:36:15;97072.94;;;9.18;100.00
32933;BME280;19444;50.518;10.870;2023-05-08T04:39:12;97072.13;;;9.41;100.00
32933;BME280;19444;50.518;10.870;2023-05-08T04:42:09;97080.25;;;9.31;100.00
32933;BME280;19444;50.518;10.870;2023-05-08T04:45:07;97076.56;;;9.27;100.00
32933;BME280;19444;50.518;10.870;2023-05-08T04:48:04;97081.81;;;9.37;100.00
32933;BME280;19444;50.518;10.870;2023-05-08T04:51:01;97083.00;;;9.26;100.00
32933;BME280;19444;50.518;10.870;2023-05-08T04:53:58;97075.41;;;9.57;100.00
32933;BME280;19444;50.518;10.870;2023-05-08T04:56:55;97086.38;;;9.61;100.00
32933;BME280;19444;50.518;10.870;2023-05-08T04:59:52;97077.31;;;9.76;100.00
32933;BME280;19444;50.518;10.870;2023-05-08T05:02:49;97075.22;;;9.73;100.00
32933;BME280;19444;50.518;10.870;2023-05-08T05:05:46;97078.06;;;9.81;100.00
32933;BME280;19444;50.518;10.870;2023-05-08T05:08:43;97083.63;;;10.04;100.00
32933;BME280;19444;50.518;10.870;2023-05-08T05:11:40;97080.81;;;9.95;100.00
32933;BME280;19444;50.518;10.870;2023-05-08T05:14:36;97082.56;;;10.23;100.00
32933;BME280;19444;50.518;10.870;2023-05-08T05:17:33;97078.28;;;10.04;100.00
32933;BME280;19444;50.518;10.870;2023-05-08T05:20:31;97085.97;;;9.91;100.00
32933;BME280;19444;50.518;10.870;2023-05-08T05:23:28;97090.38;;;10.01;100.00
32933;BME280;19444;50.518;10.870;2023-05-08T05:26:25;97086.88;;;10.24;100.00
32933;BME280;19444;50.518;10.870;2023-05-08T05:29:21;97080.47;;;10.39;100.00
32933;BME280;19444;50.518;10.870;2023-05-08T05:32:19;97086.09;;;10.19;100.00
32933;BME280;19444;50.518;10.870;2023-05-08T05:35:16;97084.03;;;10.67;100.00
32933;BME280;19444;50.518;10.870;2023-05-08T05:38:13;97074.34;;;10.85;100.00
32933;BME280;19444;50.518;10.870;2023-05-08T05:41:10;97079.47;;;11.00;100.00
32933;BME280;19444;50.518;10.870;2023-05-08T05:44:06;97075.09;;;11.04;100.00
32933;BME280;19444;50.518;10.870;2023-05-08T05:47:04;97083.56;;;11.39;100.00
32933;BME280;19444;50.518;10.870;2023-05-08T05:50:01;97085.56;;;11.47;100.00
32933;BME280;19444;50.518;10.870;2023-05-08T05:52:58;97084.84;;;11.42;100.00
32933;BME280;19444;50.518;10.870;2023-05-08T05:55:55;97086.28;;;11.80;100.00
32933;BME280;19444;50.518;10.870;2023-05-08T05:58:52;97084.97;;;11.91;100.00
32933;BME280;19444;50.518;10.870;2023-05-08T06:01:49;97092.66;;;12.07;100.00
32933;BME280;19444;50.518;10.870;2023-05-08T06:04:46;97091.00;;;12.33;100.00
32933;BME280;19444;50.518;10.870;2023-05-08T06:07:43;97084.00;;;12.68;100.00
32933;BME280;19444;50.518;10.870;2023-05-08T06:10:42;97083.88;;;12.51;100.00
32933;BME280;19444;50.518;10.870;2023-05-08T06:13:40;97082.56;;;12.71;100.00
32933;BME280;19444;50.518;10.870;2023-05-08T06:16:37;97077.75;;;13.13;100.00
32933;BME280;19444;50.518;10.870;2023-05-08T06:19:34;97084.13;;;13.17;100.00
32933;BME280;19444;50.518;10.870;2023-05-08T06:22:31;97086.72;;;13.22;100.00
32933;BME280;19444;50.518;10.870;2023-05-08T06:25:28;97075.69;;;13.41;100.00
32933;BME280;19444;50.518;10.870;2023-05-08T06:28:25;97085.94;;;12.99;100.00
32933;BME280;19444;50.518;10.870;2023-05-08T06:31:22;97080.72;;;12.71;100.00
32933;BME280;19444;50.518;10.870;2023-05-08T06:34:19;97089.53;;;12.94;100.00
32933;BME280;19444;50.518;10.870;2023-05-08T06:37:16;97092.09;;;13.22;100.00
32933;BME280;19444;50.518;10.870;2023-05-08T06:40:13;97084.41;;;13.15;100.00
32933;BME280;19444;50.518;10.870;2023-05-08T06:43:11;97079.19;;;13.41;100.00
32933;BME280;19444;50.518;10.870;2023-05-08T06:46:08;97087.13;;;13.46;100.00
32933;BME280;19444;50.518;10.870;2023-05-08T06:49:05;97086.53;;;13.58;100.00
32933;BME280;19444;50.518;10.870;2023-05-08T06:52:03;97078.94;;;13.60;100.00
32933;BME280;19444;50.518;10.870;2023-05-08T06:54:59;97077.63;;;13.49;100.00
32933;BME280;19444;50.518;10.870;2023-05-08T06:57:56;97076.47;;;13.81;100.00
32933;BME280;19444;50.518;10.870;2023-05-08T07:00:53;97073.00;;;14.23;100.00
32933;BME280;19444;50.518;10.870;2023-05-08T07:03:51;97073.97;;;14.19;100.00
32933;BME280;19444;50.518;10.870;2023-05-08T07:06:48;97074.75;;;14.71;100.00
32933;BME280;19444;50.518;10.870;2023-05-08T07:09:44;97066.38;;;14.56;100.00
32933;BME280;19444;50.518;10.870;2023-05-08T07:12:41;97076.19;;;14.69;100.00
32933;BME280;19444;50.518;10.870;2023-05-08T07:15:38;97068.44;;;14.50;100.00
32933;BME280;19444;50.518;10.870;2023-05-08T07:18:36;97065.50;;;14.90;100.00
32933;BME280;19444;50.518;10.870;2023-05-08T07:21:33;97060.50;;;15.18;100.00
32933;BME280;19444;50.518;10.870;2023-05-08T07:24:31;97055.44;;;15.16;100.00
32933;BME280;19444;50.518;10.870;2023-05-08T07:27:28;97060.38;;;15.52;99.38
32933;BME280;19444;50.518;10.870;2023-05-08T07:30:25;97058.63;;;15.56;98.28
32933;BME280;19444;50.518;10.870;2023-05-08T07:33:22;97057.63;;;15.90;96.91
32933;BME280;19444;50.518;10.870;2023-05-08T07:36:19;97067.44;;;16.04;97.66
32933;BME280;19444;50.518;10.870;2023-05-08T07:39:16;97049.53;;;15.90;96.32
32933;BME280;19444;50.518;10.870;2023-05-08T07:42:12;97061.94;;;15.62;97.62
32933;BME280;19444;50.518;10.870;2023-05-08T07:45:11;97059.84;;;16.39;94.42
32933;BME280;19444;50.518;10.870;2023-05-08T07:48:09;97056.41;;;16.30;92.37
32933;BME280;19444;50.518;10.870;2023-05-08T07:51:07;97058.72;;;16.40;94.18
32933;BME280;19444;50.518;10.870;2023-05-08T07:54:06;97059.25;;;16.33;93.82
32933;BME280;19444;50.518;10.870;2023-05-08T07:57:03;97059.38;;;16.58;88.71
32933;BME280;19444;50.518;10.870;2023-05-08T08:00:01;97051.84;;;17.09;89.74
32933;BME280;19444;50.518;10.870;2023-05-08T08:02:59;97057.25;;;17.78;85.90
32933;BME280;19444;50.518;10.870;2023-05-08T08:05:56;97058.16;;;17.00;89.63
32933;BME280;19444;50.518;10.870;2023-05-08T08:08:53;97048.97;;;17.38;88.25
32933;BME280;19444;50.518;10.870;2023-05-08T08:11:49;97054.38;;;18.11;80.87
32933;BME280;19444;50.518;10.870;2023-05-08T08:14:46;97049.47;;;18.29;78.94
32933;BME280;19444;50.518;10.870;2023-05-08T08:17:43;97045.69;;;18.74;69.76
32933;BME280;19444;50.518;10.870;2023-05-08T08:20:40;97053.69;;;18.14;78.29
32933;BME280;19444;50.518;10.870;2023-05-08T08:23:37;97049.41;;;18.97;71.29
32933;BME280;19444;50.518;10.870;2023-05-08T08:26:34;97054.50;;;17.90;78.98
32933;BME280;19444;50.518;10.870;2023-05-08T08:29:43;97041.28;;;19.13;71.79
32933;BME280;19444;50.518;10.870;2023-05-08T08:32:40;97052.25;;;18.73;77.16
32933;BME280;19444;50.518;10.870;2023-05-08T08:35:37;97048.75;;;18.72;74.63
32933;BME280;19444;50.518;10.870;2023-05-08T08:38:34;97048.34;;;18.86;71.11
32933;BME280;19444;50.518;10.870;2023-05-08T08:41:32;97049.63;;;19.20;67.40
32933;BME280;19444;50.518;10.870;2023-05-08T08:44:29;97049.78;;;18.40;75.09
32933;BME280;19444;50.518;10.870;2023-05-08T08:47:34;97035.75;;;18.94;79.64
32933;BME280;19444;50.518;10.870;2023-05-08T08:50:42;97030.38;;;20.11;64.22
32933;BME280;19444;50.518;10.870;2023-05-08T08:53:43;97023.69;;;19.39;63.33
32933;BME280;19444;50.518;10.870;2023-05-08T08:56:43;97028.16;;;19.31;62.92
32933;BME280;19444;50.518;10.870;2023-05-08T08:59:41;97031.19;;;19.45;63.64
32933;BME280;19444;50.518;10.870;2023-05-08T09:02:40;97030.81;;;19.94;56.62
32933;BME280;19444;50.518;10.870;2023-05-08T09:05:37;97027.91;;;21.22;58.98
32933;BME280;19444;50.518;10.870;2023-05-08T09:08:35;97024.78;;;20.39;57.16
32933;BME280;19444;50.518;10.870;2023-05-08T09:11:32;97027.31;;;21.33;60.69
32933;BME280;19444;50.518;10.870;2023-05-08T09:14:31;97030.53;;;20.96;58.63
32933;BME280;19444;50.518;10.870;2023-05-08T09:17:28;97028.56;;;22.14;53.91
32933;BME280;19444;50.518;10.870;2023-05-08T09:20:25;97028.06;;;21.56;59.72
32933;BME280;19444;50.518;10.870;2023-05-08T09:23:22;97023.22;;;21.69;64.72
32933;BME280;19444;50.518;10.870;2023-05-08T09:26:31;97007.78;;;23.11;49.12
32933;BME280;19444;50.518;10.870;2023-05-08T09:29:29;97006.59;;;22.71;50.66
32933;BME280;19444;50.518;10.870;2023-05-08T09:32:26;97012.56;;;22.84;50.19
32933;BME280;19444;50.518;10.870;2023-05-08T09:35:35;97015.84;;;22.29;52.41
32933;BME280;19444;50.518;10.870;2023-05-08T09:38:37;97016.56;;;22.23;53.22
32933;BME280;19444;50.518;10.870;2023-05-08T09:41:34;97014.25;;;21.45;51.58
32933;BME280;19444;50.518;10.870;2023-05-08T09:44:47;97021.09;;;21.85;63.61
32933;BME280;19444;50.518;10.870;2023-05-08T09:47:49;97017.78;;;22.25;65.57
32933;BME280;19444;50.518;10.870;2023-05-08T09:51:04;97035.63;;;21.40;66.55
32933;BME280;19444;50.518;10.870;2023-05-08T09:54:01;97022.94;;;22.04;61.34
32933;BME280;19444;50.518;10.870;2023-05-08T09:57:10;97020.13;;;22.00;54.34
32933;BME280;19444;50.518;10.870;2023-05-08T10:00:12;97028.84;;;22.39;55.40
32933;BME280;19444;50.518;10.870;2023-05-08T10:03:10;97018.25;;;23.42;54.06
32933;BME280;19444;50.518;10.870;2023-05-08T10:06:14;97022.91;;;22.64;47.12
32933;BME280;19444;50.518;10.870;2023-05-08T10:09:13;97026.13;;;22.09;66.43
32933;BME280;19444;50.518;10.870;2023-05-08T10:12:10;97018.59;;;22.59;58.49
32933;BME280;19444;50.518;10.870;2023-05-08T10:15:07;97027.53;;;22.93;48.91
32933;BME280;19444;50.518;10.870;2023-05-08T10:18:07;97025.00;;;21.35;50.53
32933;BME280;19444;50.518;10.870;2023-05-08T10:21:08;97020.28;;;21.84;74.04
32933;BME280;19444;50.518;10.870;2023-05-08T10:24:31;97034.19;;;21.76;50.47
32933;BME280;19444;50.518;10.870;2023-05-08T10:27:44;97021.84;;;22.08;46.80
32933;BME280;19444;50.518;10.870;2023-05-08T10:30:48;97023.19;;;20.77;51.98
32933;BME280;19444;50.518;10.870;2023-05-08T10:33:45;97028.31;;;22.27;63.61
32933;BME280;19444;50.518;10.870;2023-05-08T10:36:47;97026.09;;;23.99;51.84
32933;BME280;19444;50.518;10.870;2023-05-08T10:39:44;97017.53;;;23.05;47.03
32933;BME280;19444;50.518;10.870;2023-05-08T10:42:43;97016.72;;;24.98;52.35
32933;BME280;19444;50.518;10.870;2023-05-08T10:45:40;97012.28;;;24.57;43.14
32933;BME280;19444;50.518;10.870;2023-05-08T10:56:00;97012.31;;;24.68;50.34
32933;BME280;19444;50.518;10.870;2023-05-08T10:58:58;97007.53;;;26.57;47.04
32933;BME280;19444;50.518;10.870;2023-05-08T11:02:04;96996.00;;;25.53;38.89
32933;BME280;19444;50.518;10.870;2023-05-08T11:05:16;97000.31;;;25.47;50.07
32933;BME280;19444;50.518;10.870;2023-05-08T11:08:20;97005.78;;;25.87;41.92
32933;BME280;19444;50.518;10.870;2023-05-08T11:11:31;96995.91;;;26.11;57.12
32933;BME280;19444;50.518;10.870;2023-05-08T11:14:38;97005.00;;;25.18;38.96
32933;BME280;19444;50.518;10.870;2023-05-08T11:17:38;96989.75;;;25.71;37.28
32933;BME280;19444;50.518;10.870;2023-05-08T11:24:09;96997.88;;;26.10;41.64
32933;BME280;19444;50.518;10.870;2023-05-08T11:27:06;96990.19;;;26.68;37.65
32933;BME280;19444;50.518;10.870;2023-05-08T11:33:31;96988.28;;;27.75;37.96
32933;BME280;19444;50.518;10.870;2023-05-08T11:36:28;96973.66;;;27.82;51.52
32933;BME280;19444;50.518;10.870;2023-05-08T11:39:25;96977.56;;;25.54;44.71
32933;BME280;19444;50.518;10.870;2023-05-08T11:45:22;96971.81;;;27.20;37.94
32933;BME280;19444;50.518;10.870;2023-05-08T11:48:19;96968.34;;;26.39;37.39
32933;BME280;19444;50.518;10.870;2023-05-08T11:51:17;96979.84;;;26.02;36.64
32933;BME280;19444;50.518;10.870;2023-05-08T11:54:18;96970.97;;;26.68;38.27
32933;BME280;19444;50.518;10.870;2023-05-08T11:57:16;96972.09;;;27.33;43.92
32933;BME280;19444;50.518;10.870;2023-05-08T12:00:14;96965.28;;;28.27;36.06
32933;BME280;19444;50.518;10.870;2023-05-08T12:03:13;96963.38;;;29.35;40.37
32933;BME280;19444;50.518;10.870;2023-05-08T12:06:11;96958.03;;;29.48;44.54
32933;BME280;19444;50.518;10.870;2023-05-08T12:09:16;96962.38;;;28.99;36.51
32933;BME280;19444;50.518;10.870;2023-05-08T12:12:14;96972.28;;;27.11;38.54
32933;BME280;19444;50.518;10.870;2023-05-08T12:15:13;96974.03;;;28.52;58.63
32933;BME280;19444;50.518;10.870;2023-05-08T12:18:10;96957.66;;;28.04;40.56
32933;BME280;19444;50.518;10.870;2023-05-08T12:21:08;96956.66;;;27.87;35.51
32933;BME280;19444;50.518;10.870;2023-05-08T12:24:09;96964.56;;;26.85;36.81
32933;BME280;19444;50.518;10.870;2023-05-08T12:27:07;96962.50;;;27.03;36.11
32933;BME280;19444;50.518;10.870;2023-05-08T12:30:07;96965.41;;;25.41;39.21
32933;BME280;19444;50.518;10.870;2023-05-08T12:33:04;96960.31;;;25.50;43.33
32933;BME280;19444;50.518;10.870;2023-05-08T12:36:02;96953.63;;;26.74;61.16
32933;BME280;19444;50.518;10.870;2023-05-08T12:39:21;96957.97;;;25.48;40.91
32933;BME280;19444;50.518;10.870;2023-05-08T12:42:18;96966.91;;;24.60;42.13
32933;BME280;19444;50.518;10.870;2023-05-08T12:45:24;96971.28;;;23.92;42.19
32933;BME280;19444;50.518;10.870;2023-05-08T12:48:21;96964.56;;;24.65;42.27
32933;BME280;19444;50.518;10.870;2023-05-08T12:51:18;96964.53;;;24.55;42.72
32933;BME280;19444;50.518;10.870;2023-05-08T12:54:15;96965.03;;;25.07;43.80
32933;BME280;19444;50.518;10.870;2023-05-08T12:57:14;96964.56;;;24.87;42.03
32933;BME280;19444;50.518;10.870;2023-05-08T13:00:17;96959.13;;;25.62;64.66
32933;BME280;19444;50.518;10.870;2023-05-08T13:03:26;96945.81;;;27.28;37.15
32933;BME280;19444;50.518;10.870;2023-05-08T13:06:24;96934.28;;;27.44;37.13
32933;BME280;19444;50.518;10.870;2023-05-08T13:09:22;96931.88;;;27.87;37.09
32933;BME280;19444;50.518;10.870;2023-05-08T13:12:19;96931.91;;;26.94;48.90
32933;BME280;19444;50.518;10.870;2023-05-08T13:15:16;96943.31;;;26.12;39.90
32933;BME280;19444;50.518;10.870;2023-05-08T13:18:14;96943.06;;;25.00;38.84
32933;BME280;19444;50.518;10.870;2023-05-08T13:21:11;96934.06;;;25.13;41.21
32933;BME280;19444;50.518;10.870;2023-05-08T13:24:08;96926.97;;;26.68;39.17
32933;BME280;19444;50.518;10.870;2023-05-08T13:27:05;96936.66;;;26.09;47.65
32933;BME280;19444;50.518;10.870;2023-05-08T13:30:01;96938.31;;;24.64;40.84
32933;BME280;19444;50.518;10.870;2023-05-08T13:32:59;96938.59;;;23.51;44.34
32933;BME280;19444;50.518;10.870;2023-05-08T13:35:56;96930.97;;;26.56;43.48
32933;BME280;19444;50.518;10.870;2023-05-08T13:38:53;96920.72;;;27.60;37.13
32933;BME280;19444;50.518;10.870;2023-05-08T13:41:52;96923.91;;;25.24;39.38
32933;BME280;19444;50.518;10.870;2023-05-08T13:44:49;96938.66;;;24.49;41.38
32933;BME280;19444;50.518;10.870;2023-05-08T13:47:48;96935.44;;;24.29;42.79
32933;BME280;19444;50.518;10.870;2023-05-08T13:50:45;96933.22;;;24.56;72.96
32933;BME280;19444;50.518;10.870;2023-05-08T13:53:42;96910.31;;;28.13;37.51
32933;BME280;19444;50.518;10.870;2023-05-08T13:56:39;96928.16;;;25.54;41.21
32933;BME280;19444;50.518;10.870;2023-05-08T13:59:36;96918.00;;;26.56;37.88
32933;BME280;19444;50.518;10.870;2023-05-08T14:02:33;96915.63;;;27.17;37.58
32933;BME280;19444;50.518;10.870;2023-05-08T14:05:30;96924.69;;;25.18;38.36
32933;BME280;19444;50.518;10.870;2023-05-08T14:08:27;96916.69;;;26.02;40.07
32933;BME280;19444;50.518;10.870;2023-05-08T14:11:24;96903.41;;;26.67;37.99
32933;BME280;19444;50.518;10.870;2023-05-08T14:14:21;96923.31;;;24.26;41.02
32933;BME280;19444;50.518;10.870;2023-05-08T14:17:18;96916.41;;;24.75;43.45
32933;BME280;19444;50.518;10.870;2023-05-08T14:20:14;96920.72;;;25.01;39.74
32933;BME280;19444;50.518;10.870;2023-05-08T14:23:11;96917.59;;;24.71;42.08
32933;BME280;19444;50.518;10.870;2023-05-08T14:26:08;96923.34;;;23.57;44.55
32933;BME280;19444;50.518;10.870;2023-05-08T14:29:05;96916.25;;;22.90;45.21
32933;BME280;19444;50.518;10.870;2023-05-08T14:32:02;96916.66;;;22.92;52.70
32933;BME280;19444;50.518;10.870;2023-05-08T14:34:59;96926.47;;;23.52;48.70
32933;BME280;19444;50.518;10.870;2023-05-08T14:37:56;96914.19;;;23.32;46.27
32933;BME280;19444;50.518;10.870;2023-05-08T14:40:53;96911.50;;;23.97;49.44
32933;BME280;19444;50.518;10.870;2023-05-08T14:43:50;96912.56;;;22.76;45.49
32933;BME280;19444;50.518;10.870;2023-05-08T14:46:47;96904.91;;;26.01;40.01
32933;BME280;19444;50.518;10.870;2023-05-08T14:49:43;96901.56;;;26.53;40.87
32933;BME280;19444;50.518;10.870;2023-05-08T14:52:40;96903.44;;;26.59;36.50
32933;BME280;19444;50.518;10.870;2023-05-08T14:55:37;96897.66;;;25.16;45.38
32933;BME280;19444;50.518;10.870;2023-05-08T14:58:35;96910.25;;;27.03;46.69
32933;BME280;19444;50.518;10.870;2023-05-08T15:01:32;96905.28;;;26.11;52.86
32933;BME280;19444;50.518;10.870;2023-05-08T15:04:28;96923.56;;;23.89;42.61
32933;BME280;19444;50.518;10.870;2023-05-08T15:07:25;96916.97;;;24.01;51.02
32933;BME280;19444;50.518;10.870;2023-05-08T15:10:23;96923.69;;;22.56;47.60
32933;BME280;19444;50.518;10.870;2023-05-08T15:13:20;96919.50;;;24.56;54.13
32933;BME280;19444;50.518;10.870;2023-05-08T15:16:16;96922.22;;;24.42;53.16
32933;BME280;19444;50.518;10.870;2023-05-08T15:19:13;96922.63;;;24.47;42.64
32933;BME280;19444;50.518;10.870;2023-05-08T15:22:11;96926.16;;;23.09;44.23
32933;BME280;19444;50.518;10.870;2023-05-08T15:25:08;96935.28;;;21.79;47.78
32933;BME280;19444;50.518;10.870;2023-05-08T15:28:06;96930.88;;;23.12;53.64
32933;BME280;19444;50.518;10.870;2023-05-08T15:31:03;96929.16;;;23.45;49.93
32933;BME280;19444;50.518;10.870;2023-05-08T15:34:00;96926.47;;;23.01;48.46
32933;BME280;19444;50.518;10.870;2023-05-08T15:36:57;96934.13;;;23.91;42.87
32933;BME280;19444;50.518;10.870;2023-05-08T15:39:54;96932.91;;;23.81;46.58
32933;BME280;19444;50.518;10.870;2023-05-08T15:42:51;96935.22;;;23.20;44.38
32933;BME280;19444;50.518;10.870;2023-05-08T15:45:47;96940.63;;;22.32;45.72
32933;BME280;19444;50.518;10.870;2023-05-08T15:48:44;96943.09;;;21.54;49.33
32933;BME280;19444;50.518;10.870;2023-05-08T15:51:41;96934.66;;;21.63;51.55
32933;BME280;19444;50.518;10.870;2023-05-08T15:54:38;96927.75;;;21.19;51.38
32933;BME280;19444;50.518;10.870;2023-05-08T15:57:35;96925.13;;;21.49;52.58
32933;BME280;19444;50.518;10.870;2023-05-08T16:00:32;96925.28;;;21.34;55.06
32933;BME280;19444;50.518;10.870;2023-05-08T16:03:40;96927.59;;;21.32;50.11
32933;BME280;19444;50.518;10.870;2023-05-08T16:06:37;96931.84;;;21.06;51.05
32933;BME280;19444;50.518;10.870;2023-05-08T16:09:34;96937.19;;;20.76;53.87